Terminal Aerodrome Forecast
Issued by NWS

Home | Current Version | Previous Version | Text Only | Print | Product List | Glossary On
Versions: 1 2 3 4 5 6 7 8 9 10 11 12
000
FTUS45 KABQ 181122
TAFFMN
TAF
KFMN 181122Z 1812/1912 09006KT P6SM OVC200
     FM181800 18009KT P6SM BKN200
     FM182100 24014G22KT P6SM BKN200
     FM190300 21013KT P6SM OVC100=

USA.gov is the U.S. government's official web portal to all federal, state and local government web resources and services.